Terminal Aerodrome Forecast
Issued by NWS

Home | Current Version | Previous Version | Text Only | Print | Product List | Glossary On
Versions: 1 2 3 4 5 6 7 8 9 10 11 12
000
FTUS46 KLOX 170500
TAFPRB
TAF
KPRB 170522Z 1706/1806 30010KT P6SM SCT200
     FM171000 VRB03KT P6SM SKC
     FM172000 21008KT P6SM SCT100
     FM172300 21015G20KT P6SM SCT100
     FM180300 21010KT P6SM SKC=

USA.gov is the U.S. government's official web portal to all federal, state and local government web resources and services.